Time;durP1;ratioP1;P1;durP2;ratioP2;P2;SDS_P1;SDS_P2;PMS_P1;PMS_P2;Temp;Humidity;BMP_temperature;BMP_pressure;BME280_temperature;BME280_humidity;BME280_pressure;Samples;Min_cycle;Max_cycle;Signal;HPM_P1;HPM_P2
2023/02/13 00:00:51;;;;;;;13.27;7.00;;;;;;;;;;10370926;28;20026;-64
2023/02/13 00:05:52;;;;;;;12.52;6.88;;;;;;;;;;10369843;28;20519;-64
2023/02/13 00:10:52;;;;;;;13.20;7.10;;;;;;;;;;10369715;28;20026;-65
2023/02/13 00:15:58;;;;;;;13.20;6.88;;;;;;;;;;10363222;28;20022;-65
2023/02/13 00:21:11;;;;;;;11.18;6.88;;;;;;;;;;10370426;28;20018;-64
2023/02/13 00:26:15;;;;;;;12.10;7.05;;;;;;;;;;10369786;28;20025;-64
2023/02/13 00:31:18;;;;;;;10.85;6.90;;;;;;;;;;10370196;28;20109;-64
2023/02/13 00:36:22;;;;;;;11.18;5.95;;;;;;;;;;10368950;28;20406;-64
2023/02/13 00:41:22;;;;;;;11.95;6.78;;;;;;;;;;10380240;28;20524;-64
2023/02/13 00:46:23;;;;;;;10.15;6.78;;;;;;;;;;10386470;28;20030;-64
2023/02/13 00:51:23;;;;;;;10.57;6.50;;;;;;;;;;10369040;28;20022;-65
2023/02/13 00:56:24;;;;;;;13.40;6.70;;;;;;;;;;10368853;28;20037;-65
2023/02/13 01:01:25;;;;;;;9.50;6.38;;;;;;;;;;10368763;28;20026;-65
2023/02/13 01:06:25;;;;;;;9.85;6.75;;;;;;;;;;10368058;28;20033;-65
2023/02/13 01:11:26;;;;;;;11.02;6.82;;;;;;;;;;10368328;28;20026;-66
2023/02/13 01:16:26;;;;;;;8.35;6.35;;;;;;;;;;10361331;28;20363;-65
2023/02/13 01:21:27;;;;;;;7.20;5.72;;;;;;;;;;10367157;28;20029;-65
2023/02/13 01:26:27;;;;;;;11.05;6.10;;;;;;;;;;10368559;28;20084;-65
2023/02/13 01:31:28;;;;;;;10.77;6.25;;;;;;;;;;10367566;28;20033;-65
2023/02/13 01:36:29;;;;;;;10.57;5.90;;;;;;;;;;10367544;28;20064;-65
2023/02/13 01:41:29;;;;;;;10.18;5.68;;;;;;;;;;10366993;28;20036;-65
2023/02/13 01:46:38;;;;;;;9.25;6.45;;;;;;;;;;10386262;28;20026;-65
2023/02/13 01:51:39;;;;;;;9.65;6.07;;;;;;;;;;10383685;28;20030;-65
2023/02/13 01:56:50;;;;;;;7.43;5.78;;;;;;;;;;10386489;28;20078;-65
2023/02/13 02:01:51;;;;;;;8.07;5.82;;;;;;;;;;10380639;28;20143;-66
2023/02/13 02:06:58;;;;;;;8.82;5.40;;;;;;;;;;10387301;28;20063;-66
2023/02/13 02:12:28;;;;;;;8.30;5.70;;;;;;;;;;10386340;28;20496;-66
2023/02/13 02:17:28;;;;;;;11.48;5.70;;;;;;;;;;10387075;28;20678;-64
2023/02/13 02:22:55;;;;;;;6.47;5.57;;;;;;;;;;10403632;28;20265;-65
2023/02/13 02:28:14;;;;;;;11.15;5.20;;;;;;;;;;10394198;28;20104;-66
2023/02/13 02:33:31;;;;;;;;;;;;;;;;;;10379192;28;20025;-67
2023/02/13 02:38:56;;;;;;;7.82;5.32;;;;;;;;;;10383873;28;20296;-67
2023/02/13 02:44:18;;;;;;;9.93;5.57;;;;;;;;;;10379405;28;20018;-66
2023/02/13 02:55:05;;;;;;;7.63;5.25;;;;;;;;;;10400732;28;20370;-66
2023/02/13 03:22:18;;;;;;;6.97;5.45;;;;;;;;;;10385740;28;20033;-66
2023/02/13 03:34:01;;;;;;;6.03;4.55;;;;;;;;;;10395690;28;20033;-66
2023/02/13 03:39:16;;;;;;;6.50;4.97;;;;;;;;;;10367874;28;20050;-66
2023/02/13 03:50:19;;;;;;;10.93;5.07;;;;;;;;;;10375373;28;20038;-66
2023/02/13 04:01:08;;;;;;;5.63;4.50;;;;;;;;;;10387988;28;20030;-67
2023/02/13 04:06:20;;;;;;;6.25;4.22;;;;;;;;;;10406622;28;20107;-66
2023/02/13 04:11:36;;;;;;;5.93;4.35;;;;;;;;;;10394579;28;20428;-65
2023/02/13 04:16:42;;;;;;;5.28;4.28;;;;;;;;;;10404197;28;20045;-65
2023/02/13 04:21:43;;;;;;;6.18;4.28;;;;;;;;;;10381071;28;20481;-70
2023/02/13 04:26:45;;;;;;;6.65;4.47;;;;;;;;;;10368064;28;20028;-65
2023/02/13 04:31:46;;;;;;;5.75;4.68;;;;;;;;;;10407217;28;20108;-69
2023/02/13 04:36:47;;;;;;;5.20;4.28;;;;;;;;;;10403436;28;20042;-65
2023/02/13 04:41:47;;;;;;;5.25;4.10;;;;;;;;;;10402390;28;20032;-67
2023/02/13 04:46:48;;;;;;;5.45;4.60;;;;;;;;;;10393098;28;20030;-66
2023/02/13 04:51:48;;;;;;;9.25;4.32;;;;;;;;;;10400052;28;20469;-67
2023/02/13 04:56:49;;;;;;;6.20;4.40;;;;;;;;;;10386580;28;20044;-64
2023/02/13 05:01:50;;;;;;;6.30;4.18;;;;;;;;;;10405363;28;20021;-64
2023/02/13 05:06:50;;;;;;;6.03;4.03;;;;;;;;;;10396797;28;20025;-66
2023/02/13 05:11:52;;;;;;;11.50;4.55;;;;;;;;;;10390644;28;20022;-65
2023/02/13 05:16:53;;;;;;;5.75;4.72;;;;;;;;;;10384173;28;20029;-66
2023/02/13 05:27:13;;;;;;;5.47;4.00;;;;;;;;;;10362293;28;20053;-71
2023/02/13 05:32:14;;;;;;;5.65;4.13;;;;;;;;;;10383176;28;20052;-71
2023/02/13 05:37:14;;;;;;;4.35;3.90;;;;;;;;;;10400989;28;20046;-71
2023/02/13 05:42:15;;;;;;;5.95;4.47;;;;;;;;;;10397863;28;20068;-69
2023/02/13 05:47:15;;;;;;;6.25;4.25;;;;;;;;;;10404723;28;20033;-69
2023/02/13 05:52:16;;;;;;;3.90;3.38;;;;;;;;;;10389522;28;20029;-68
2023/02/13 05:57:17;;;;;;;5.45;4.10;;;;;;;;;;10400551;28;20052;-71
2023/02/13 06:02:17;;;;;;;7.65;4.00;;;;;;;;;;10365711;28;20034;-70
2023/02/13 06:07:18;;;;;;;7.97;3.97;;;;;;;;;;10371503;28;20482;-71
2023/02/13 06:12:18;;;;;;;4.75;4.00;;;;;;;;;;10380423;28;20488;-69
2023/02/13 06:17:19;;;;;;;4.70;4.20;;;;;;;;;;10373225;28;20589;-69
2023/02/13 06:22:19;;;;;;;9.50;4.30;;;;;;;;;;10374583;28;20486;-67
2023/02/13 06:27:20;;;;;;;8.23;3.97;;;;;;;;;;10376838;28;20028;-64
2023/02/13 06:32:20;;;;;;;5.85;4.18;;;;;;;;;;10372764;28;20466;-65
2023/02/13 06:37:21;;;;;;;6.53;4.93;;;;;;;;;;10375718;28;20046;-65
2023/02/13 06:42:21;;;;;;;9.07;5.40;;;;;;;;;;10371771;28;20088;-64
2023/02/13 06:47:22;;;;;;;9.05;5.32;;;;;;;;;;10373325;28;20037;-64
2023/02/13 06:52:23;;;;;;;10.32;5.18;;;;;;;;;;10369329;28;20026;-67
2023/02/13 06:57:24;;;;;;;8.88;5.72;;;;;;;;;;10372436;28;20535;-69
2023/02/13 07:02:25;;;;;;;15.32;6.22;;;;;;;;;;10367950;28;20080;-64
2023/02/13 07:07:25;;;;;;;12.27;6.15;;;;;;;;;;10392972;28;20033;-69
2023/02/13 07:12:26;;;;;;;20.42;5.85;;;;;;;;;;10395038;28;20025;-70
2023/02/13 07:17:27;;;;;;;36.13;7.05;;;;;;;;;;10377609;28;20037;-70
2023/02/13 07:22:27;;;;;;;10.25;6.10;;;;;;;;;;10376750;28;20033;-69
2023/02/13 07:27:28;;;;;;;10.70;5.88;;;;;;;;;;10393866;28;20025;-69
2023/02/13 07:32:29;;;;;;;13.05;6.30;;;;;;;;;;10389193;28;20466;-68
2023/02/13 07:37:30;;;;;;;12.52;5.90;;;;;;;;;;10372628;28;20038;-68
2023/02/13 07:42:34;;;;;;;10.90;5.97;;;;;;;;;;10373070;28;20040;-66
2023/02/13 07:47:35;;;;;;;13.02;6.18;;;;;;;;;;10371311;28;20030;-70
2023/02/13 07:52:36;;;;;;;10.88;6.63;;;;;;;;;;10399489;28;20017;-68
2023/02/13 07:57:37;;;;;;;9.73;5.93;;;;;;;;;;10408383;28;20037;-69
2023/02/13 08:02:38;;;;;;;10.50;5.72;;;;;;;;;;10403108;28;20524;-68
2023/02/13 08:07:38;;;;;;;9.02;6.10;;;;;;;;;;10397989;28;20037;-69
2023/02/13 08:12:39;;;;;;;12.52;5.75;;;;;;;;;;10399563;28;20033;-69
2023/02/13 08:17:40;;;;;;;9.30;5.80;;;;;;;;;;10390848;28;20025;-63
2023/02/13 08:22:41;;;;;;;9.30;5.53;;;;;;;;;;10389626;28;20017;-63
2023/02/13 08:27:41;;;;;;;10.23;5.15;;;;;;;;;;10390687;28;20025;-63
2023/02/13 08:32:42;;;;;;;11.57;6.30;;;;;;;;;;10407656;28;20025;-63
2023/02/13 08:37:42;;;;;;;9.35;4.97;;;;;;;;;;10401445;28;20053;-63
2023/02/13 08:42:43;;;;;;;12.02;5.15;;;;;;;;;;10401416;28;20032;-63
2023/02/13 08:47:43;;;;;;;7.57;5.43;;;;;;;;;;10389497;28;20028;-63
2023/02/13 08:52:44;;;;;;;12.18;5.55;;;;;;;;;;10378032;28;20030;-63
2023/02/13 08:57:45;;;;;;;8.02;5.03;;;;;;;;;;10394020;28;20033;-63
2023/02/13 09:02:45;;;;;;;7.28;5.20;;;;;;;;;;10400291;28;20049;-63
2023/02/13 09:07:46;;;;;;;9.65;5.82;;;;;;;;;;10395078;28;20026;-63
2023/02/13 09:12:53;;;;;;;7.13;5.22;;;;;;;;;;10389972;28;20025;-63
2023/02/13 09:17:54;;;;;;;8.77;5.63;;;;;;;;;;10383014;28;20421;-63
2023/02/13 09:22:55;;;;;;;10.43;5.93;;;;;;;;;;10377123;28;20026;-63
2023/02/13 09:27:57;;;;;;;7.57;5.28;;;;;;;;;;10371099;28;20145;-63
2023/02/13 09:32:58;;;;;;;7.88;5.18;;;;;;;;;;10388307;28;20109;-63
2023/02/13 09:37:59;;;;;;;8.02;5.25;;;;;;;;;;10385970;28;20411;-63
2023/02/13 09:43:19;;;;;;;7.30;5.57;;;;;;;;;;10363333;28;20130;-63
2023/02/13 09:48:33;;;;;;;10.02;5.38;;;;;;;;;;10364776;28;20390;-63
2023/02/13 09:53:35;;;;;;;7.82;5.53;;;;;;;;;;10364018;28;20379;-63
2023/02/13 09:58:44;;;;;;;10.70;5.70;;;;;;;;;;10366166;28;20030;-63
2023/02/13 10:03:57;;;;;;;5.63;4.63;;;;;;;;;;10356712;28;20052;-63
2023/02/13 10:09:08;;;;;;;12.55;5.35;;;;;;;;;;10372355;28;20025;-63
2023/02/13 10:14:14;;;;;;;7.88;4.53;;;;;;;;;;10380308;28;20065;-63
2023/02/13 10:19:47;;;;;;;7.25;4.68;;;;;;;;;;10366518;28;20469;-65
2023/02/13 10:25:13;;;;;;;8.05;4.97;;;;;;;;;;10371149;28;20456;-63
2023/02/13 10:30:31;;;;;;;5.90;4.43;;;;;;;;;;10380856;28;20026;-63
2023/02/13 10:35:32;;;;;;;12.50;4.80;;;;;;;;;;10385368;23;20045;-58
2023/02/13 10:40:41;;;;;;;5.00;4.45;;;;;;;;;;10391248;28;20109;-58
2023/02/13 10:46:30;;;;;;;8.65;4.78;;;;;;;;;;10397852;28;20473;-58
2023/02/13 10:51:35;;;;;;;7.78;4.90;;;;;;;;;;10391224;28;20669;-58
2023/02/13 10:57:17;;;;;;;7.85;4.80;;;;;;;;;;10406966;28;20026;-58
2023/02/13 11:02:25;;;;;;;14.23;4.88;;;;;;;;;;10397626;28;20390;-58
2023/02/13 11:07:26;;;;;;;6.97;4.90;;;;;;;;;;10405559;28;20026;-58
2023/02/13 11:12:31;;;;;;;10.50;4.80;;;;;;;;;;10410023;28;20033;-58
2023/02/13 11:17:35;;;;;;;7.22;4.90;;;;;;;;;;10405768;28;20117;-57
2023/02/13 11:22:44;;;;;;;5.85;4.40;;;;;;;;;;10399827;28;20033;-58
2023/02/13 11:27:46;;;;;;;7.40;4.90;;;;;;;;;;10407296;28;20026;-58
2023/02/13 11:33:05;;;;;;;5.93;4.35;;;;;;;;;;10403652;28;20029;-58
2023/02/13 11:38:26;;;;;;;5.68;4.18;;;;;;;;;;10405506;28;20045;-58
2023/02/13 11:43:34;;;;;;;6.78;4.50;;;;;;;;;;10407575;28;20034;-59
2023/02/13 11:48:34;;;;;;;8.43;4.28;;;;;;;;;;10404411;28;20546;-58
2023/02/13 11:53:38;;;;;;;5.07;3.97;;;;;;;;;;10401863;28;20038;-58
2023/02/13 11:58:40;;;;;;;5.43;4.35;;;;;;;;;;10397437;28;20120;-58
2023/02/13 12:03:40;;;;;;;5.93;4.65;;;;;;;;;;10408391;28;20051;-58
2023/02/13 12:08:48;;;;;;;5.88;4.28;;;;;;;;;;10409869;28;20040;-58
2023/02/13 12:13:50;;;;;;;6.45;4.28;;;;;;;;;;10403723;28;20017;-58
2023/02/13 12:18:55;;;;;;;4.82;4.03;;;;;;;;;;10407195;28;20029;-58
2023/02/13 12:24:52;;;;;;;6.10;4.13;;;;;;;;;;10409585;28;20032;-58
2023/02/13 12:30:10;;;;;;;8.88;4.20;;;;;;;;;;10403737;28;20049;-57
2023/02/13 12:35:31;;;;;;;5.47;4.63;;;;;;;;;;10398489;28;20259;-59
2023/02/13 12:40:35;;;;;;;6.80;4.07;;;;;;;;;;10404176;28;20021;-59
2023/02/13 12:45:44;;;;;;;4.70;4.00;;;;;;;;;;10409851;28;20552;-58
2023/02/13 12:51:09;;;;;;;7.03;4.32;;;;;;;;;;10406378;28;20049;-58
2023/02/13 12:56:37;;;;;;;5.88;3.80;;;;;;;;;;10398064;28;20032;-58
2023/02/13 13:02:14;;;;;;;4.40;3.60;;;;;;;;;;10405767;28;20032;-59
2023/02/13 13:08:00;;;;;;;7.63;4.30;;;;;;;;;;10402557;28;20030;-58
2023/02/13 13:13:22;;;;;;;4.95;3.78;;;;;;;;;;10407055;28;20025;-58
2023/02/13 13:18:43;;;;;;;4.68;3.78;;;;;;;;;;10400777;28;20037;-58
2023/02/13 13:24:02;;;;;;;4.13;3.35;;;;;;;;;;10404285;28;20049;-59
2023/02/13 13:29:16;;;;;;;4.40;3.90;;;;;;;;;;10412541;28;20117;-58
2023/02/13 13:34:23;;;;;;;8.15;3.55;;;;;;;;;;10404197;28;20044;-58
2023/02/13 13:40:19;;;;;;;5.57;3.05;;;;;;;;;;10410801;28;20063;-59
2023/02/13 13:45:46;;;;;;;5.03;3.35;;;;;;;;;;10383442;28;20409;-58
2023/02/13 13:50:47;;;;;;;5.30;3.45;;;;;;;;;;10398309;28;20184;-57
2023/02/13 13:56:08;;;;;;;5.18;3.90;;;;;;;;;;10403570;28;20276;-58
2023/02/13 14:01:21;;;;;;;4.53;3.40;;;;;;;;;;10407224;28;20124;-58
2023/02/13 14:06:47;;;;;;;9.38;3.78;;;;;;;;;;10390576;28;20025;-58
2023/02/13 14:11:48;;;;;;;3.80;3.13;;;;;;;;;;10387495;28;20547;-58
2023/02/13 14:16:49;;;;;;;7.63;3.47;;;;;;;;;;10404761;28;20035;-58
2023/02/13 14:21:50;;;;;;;6.20;3.45;;;;;;;;;;10385894;28;20025;-58
2023/02/13 14:26:55;;;;;;;5.32;3.38;;;;;;;;;;10393995;28;20032;-58
2023/02/13 14:32:01;;;;;;;6.45;3.78;;;;;;;;;;10405232;28;20617;-60
2023/02/13 14:37:20;;;;;;;7.45;3.50;;;;;;;;;;10411020;28;20082;-61
2023/02/13 14:42:29;;;;;;;4.38;3.50;;;;;;;;;;10413333;28;20034;-61
2023/02/13 14:47:41;;;;;;;4.82;3.35;;;;;;;;;;10402692;28;20037;-58
2023/02/13 14:52:45;;;;;;;5.60;3.42;;;;;;;;;;10408528;28;20112;-58
2023/02/13 14:57:53;;;;;;;4.43;3.50;;;;;;;;;;10422270;28;20060;-59
2023/02/13 15:03:01;;;;;;;8.33;3.10;;;;;;;;;;10398298;28;20026;-59
2023/02/13 15:08:13;;;;;;;3.50;3.17;;;;;;;;;;10411141;28;20049;-59
2023/02/13 15:13:23;;;;;;;4.30;3.10;;;;;;;;;;10403850;28;20028;-58
2023/02/13 15:18:29;;;;;;;3.47;2.75;;;;;;;;;;10400624;28;20112;-58
2023/02/13 15:23:32;;;;;;;5.03;3.45;;;;;;;;;;10393529;28;20271;-59
2023/02/13 15:28:35;;;;;;;3.95;3.03;;;;;;;;;;10401646;28;20091;-58
2023/02/13 15:33:47;;;;;;;5.22;2.83;;;;;;;;;;10399525;28;20030;-59
2023/02/13 15:38:48;;;;;;;4.80;2.75;;;;;;;;;;10398705;28;20053;-59
2023/02/13 15:43:54;;;;;;;4.68;3.55;;;;;;;;;;10402221;28;20025;-58
2023/02/13 15:49:09;;;;;;;7.13;2.90;;;;;;;;;;10395952;28;20033;-59
2023/02/13 15:54:31;;;;;;;2.75;2.53;;;;;;;;;;10396179;28;20117;-58
2023/02/13 15:59:38;;;;;;;6.70;3.03;;;;;;;;;;10393376;28;20034;-58
2023/02/13 16:04:40;;;;;;;10.20;3.45;;;;;;;;;;10408444;28;20041;-59
2023/02/13 16:09:41;;;;;;;5.35;3.03;;;;;;;;;;10405343;28;20022;-58
2023/02/13 16:14:58;;;;;;;3.10;2.28;;;;;;;;;;10403077;28;20472;-58
2023/02/13 16:20:08;;;;;;;2.90;2.60;;;;;;;;;;10392059;28;20028;-58
2023/02/13 16:25:11;;;;;;;5.00;2.90;;;;;;;;;;10415373;28;20502;-58
2023/02/13 16:30:31;;;;;;;7.03;3.80;;;;;;;;;;10408199;28;20033;-58
2023/02/13 16:35:39;;;;;;;5.30;2.92;;;;;;;;;;10386728;28;20549;-59
2023/02/13 16:40:42;;;;;;;4.85;2.95;;;;;;;;;;10399210;28;20025;-58
2023/02/13 16:45:43;;;;;;;4.95;2.80;;;;;;;;;;10397074;28;20048;-58
2023/02/13 16:50:43;;;;;;;3.78;2.70;;;;;;;;;;10391497;28;20029;-58
2023/02/13 16:55:44;;;;;;;4.70;2.70;;;;;;;;;;10405704;28;20025;-60
2023/02/13 17:00:50;;;;;;;5.35;2.90;;;;;;;;;;10384699;28;20026;-60
2023/02/13 17:05:50;;;;;;;5.25;3.30;;;;;;;;;;10384389;28;20072;-59
2023/02/13 17:11:06;;;;;;;3.63;2.72;;;;;;;;;;10404218;28;20481;-59
2023/02/13 17:16:09;;;;;;;3.78;3.10;;;;;;;;;;10404432;28;20112;-59
2023/02/13 17:21:09;;;;;;;4.13;3.13;;;;;;;;;;10402685;28;20028;-60
2023/02/13 17:26:10;;;;;;;5.80;3.10;;;;;;;;;;10405630;28;20354;-60
2023/02/13 17:31:11;;;;;;;7.68;3.40;;;;;;;;;;10400702;28;20680;-61
2023/02/13 17:36:13;;;;;;;8.18;3.42;;;;;;;;;;10405525;28;20500;-60
2023/02/13 17:41:15;;;;;;;8.45;2.85;;;;;;;;;;10394610;28;20047;-60
2023/02/13 17:46:15;;;;;;;6.15;3.17;;;;;;;;;;10392576;28;20041;-61
2023/02/13 17:51:16;;;;;;;17.38;3.63;;;;;;;;;;10404013;28;20048;-61
2023/02/13 17:56:17;;;;;;;11.55;3.97;;;;;;;;;;10402930;28;20060;-61
2023/02/13 18:01:17;;;;;;;11.18;3.70;;;;;;;;;;10389455;28;20034;-61
2023/02/13 18:06:18;;;;;;;10.45;3.58;;;;;;;;;;10397293;28;20126;-61
2023/02/13 18:11:18;;;;;;;5.28;3.90;;;;;;;;;;10397700;28;20038;-61
2023/02/13 18:16:21;;;;;;;9.23;3.83;;;;;;;;;;10391034;28;20421;-61
2023/02/13 18:21:22;;;;;;;14.43;3.90;;;;;;;;;;10407483;28;20028;-61
2023/02/13 18:26:22;;;;;;;10.00;3.95;;;;;;;;;;10402953;28;20038;-61
2023/02/13 18:31:23;;;;;;;6.00;3.67;;;;;;;;;;10398464;28;20508;-61
2023/02/13 18:36:24;;;;;;;8.30;3.85;;;;;;;;;;10404039;28;20053;-61
2023/02/13 18:41:24;;;;;;;9.63;4.30;;;;;;;;;;10402682;28;20060;-62
2023/02/13 18:46:25;;;;;;;11.55;4.25;;;;;;;;;;10402213;28;20047;-60
2023/02/13 18:51:25;;;;;;;9.80;3.58;;;;;;;;;;10404793;28;20037;-61
2023/02/13 18:56:26;;;;;;;5.28;3.60;;;;;;;;;;10404639;28;20029;-60
2023/02/13 19:01:27;;;;;;;7.38;3.63;;;;;;;;;;10408365;28;20679;-62
2023/02/13 19:06:29;;;;;;;7.38;3.60;;;;;;;;;;10403642;28;20365;-62
2023/02/13 19:11:30;;;;;;;22.85;15.68;;;;;;;;;;10411026;28;20032;-62
2023/02/13 19:16:33;;;;;;;26.48;18.17;;;;;;;;;;10412467;28;20040;-62
2023/02/13 19:21:37;;;;;;;20.15;14.68;;;;;;;;;;10409005;28;20021;-61
2023/02/13 19:26:37;;;;;;;17.75;13.00;;;;;;;;;;10415620;28;20033;-62
2023/02/13 19:31:38;;;;;;;19.10;11.85;;;;;;;;;;10415730;28;20032;-62
2023/02/13 19:36:38;;;;;;;15.77;11.93;;;;;;;;;;10410016;28;20046;-61
2023/02/13 19:41:42;;;;;;;14.30;11.02;;;;;;;;;;10406767;28;20461;-61
2023/02/13 19:46:43;;;;;;;24.73;16.60;;;;;;;;;;10418901;28;20029;-61
2023/02/13 19:51:45;;;;;;;29.20;18.95;;;;;;;;;;10408521;28;20029;-62
2023/02/13 19:56:46;;;;;;;28.02;20.02;;;;;;;;;;10405049;28;20330;-60
2023/02/13 20:01:47;;;;;;;29.27;19.55;;;;;;;;;;10412748;28;20622;-61
2023/02/13 20:06:49;;;;;;;27.52;21.20;;;;;;;;;;10408124;28;20029;-61
2023/02/13 20:11:50;;;;;;;32.90;20.85;;;;;;;;;;10402343;28;20473;-60
2023/02/13 20:16:50;;;;;;;27.20;21.52;;;;;;;;;;10408162;28;20033;-61
2023/02/13 20:21:51;;;;;;;33.13;22.75;;;;;;;;;;10407649;28;20041;-61
2023/02/13 20:26:55;;;;;;;26.67;19.60;;;;;;;;;;10399228;28;20473;-60
2023/02/13 20:31:55;;;;;;;29.95;20.65;;;;;;;;;;10409756;28;20068;-58
2023/02/13 20:36:56;;;;;;;29.25;19.55;;;;;;;;;;10400167;28;20137;-60
2023/02/13 20:41:57;;;;;;;29.77;21.55;;;;;;;;;;10413165;28;20017;-60
2023/02/13 20:46:57;;;;;;;26.95;19.88;;;;;;;;;;10407246;28;20370;-60
2023/02/13 20:51:59;;;;;;;32.50;22.20;;;;;;;;;;10409175;28;20489;-60
2023/02/13 20:56:59;;;;;;;29.15;21.48;;;;;;;;;;10411092;28;20037;-61
2023/02/13 21:02:00;;;;;;;35.15;20.30;;;;;;;;;;10404964;28;20067;-62
2023/02/13 21:07:02;;;;;;;27.40;19.15;;;;;;;;;;10397544;28;20496;-59
2023/02/13 21:12:03;;;;;;;28.83;20.10;;;;;;;;;;10387096;28;20026;-60
2023/02/13 21:17:04;;;;;;;31.92;20.27;;;;;;;;;;10403631;28;20512;-59
2023/02/13 21:22:11;;;;;;;29.98;18.20;;;;;;;;;;10398735;28;20025;-58
2023/02/13 21:27:12;;;;;;;30.80;17.90;;;;;;;;;;10404741;28;20374;-59
2023/02/13 21:32:13;;;;;;;25.45;18.48;;;;;;;;;;10400396;28;20025;-58
2023/02/13 21:37:13;;;;;;;30.52;18.30;;;;;;;;;;10403344;28;20043;-59
2023/02/13 21:42:14;;;;;;;27.05;16.88;;;;;;;;;;10407090;28;20055;-58
2023/02/13 21:47:15;;;;;;;28.70;16.52;;;;;;;;;;10404034;28;20469;-57
2023/02/13 21:52:17;;;;;;;24.63;16.13;;;;;;;;;;10406330;28;20025;-58
2023/02/13 21:57:17;;;;;;;25.23;15.30;;;;;;;;;;10405718;28;20061;-57
2023/02/13 22:02:18;;;;;;;26.13;15.98;;;;;;;;;;10405320;28;20108;-58
2023/02/13 22:07:19;;;;;;;19.88;15.13;;;;;;;;;;10398466;28;20392;-58
2023/02/13 22:12:19;;;;;;;25.02;15.50;;;;;;;;;;10407510;28;20045;-58
2023/02/13 22:17:20;;;;;;;28.10;14.93;;;;;;;;;;10404182;28;20041;-57
2023/02/13 22:22:20;;;;;;;22.67;14.57;;;;;;;;;;10404312;28;20037;-58
2023/02/13 22:27:21;;;;;;;20.67;14.15;;;;;;;;;;10402642;28;20041;-57
2023/02/13 22:32:21;;;;;;;21.88;14.43;;;;;;;;;;10396058;28;20035;-57
2023/02/13 22:37:22;;;;;;;20.63;13.15;;;;;;;;;;10396042;28;20501;-57
2023/02/13 22:42:23;;;;;;;18.40;13.55;;;;;;;;;;10401054;28;20029;-58
2023/02/13 22:47:23;;;;;;;19.77;12.82;;;;;;;;;;10408310;28;20133;-58
2023/02/13 22:52:24;;;;;;;18.20;12.35;;;;;;;;;;10415266;28;20388;-58
2023/02/13 22:57:25;;;;;;;20.10;12.07;;;;;;;;;;10409245;28;20037;-58
2023/02/13 23:02:25;;;;;;;15.05;11.30;;;;;;;;;;10410191;28;20095;-58
2023/02/13 23:07:26;;;;;;;17.17;13.07;;;;;;;;;;10402747;28;20030;-58
2023/02/13 23:12:35;;;;;;;21.63;10.90;;;;;;;;;;10411966;28;20025;-57
2023/02/13 23:22:56;;;;;;;19.98;11.95;;;;;;;;;;10412124;28;20041;-57
2023/02/13 23:27:57;;;;;;;17.08;10.70;;;;;;;;;;10410193;28;20021;-56
2023/02/13 23:32:59;;;;;;;20.30;10.60;;;;;;;;;;10410115;28;20509;-57
2023/02/13 23:38:00;;;;;;;13.38;9.95;;;;;;;;;;10408931;28;20476;-57
2023/02/13 23:43:00;;;;;;;14.55;11.02;;;;;;;;;;10409147;28;20017;-57
2023/02/13 23:48:01;;;;;;;15.43;10.25;;;;;;;;;;10406947;28;20032;-57
2023/02/13 23:53:01;;;;;;;13.00;10.38;;;;;;;;;;10410559;28;20029;-57
2023/02/13 23:58:02;;;;;;;14.32;10.27;;;;;;;;;;10399603;28;20037;-57
